createdAt,value
2019-02-21T00:01:55.027Z,33.83
2019-02-21T00:04:24.363Z,38.37
2019-02-21T00:06:53.682Z,37.23
2019-02-21T00:09:22.955Z,38.00
2019-02-21T00:11:52.323Z,33.40
2019-02-21T00:14:21.666Z,32.50
2019-02-21T00:16:50.974Z,33.73
2019-02-21T00:19:20.273Z,32.47
2019-02-21T00:21:49.660Z,32.43
2019-02-21T00:24:18.948Z,35.27
2019-02-21T00:26:48.308Z,33.27
2019-02-21T00:29:17.565Z,33.17
2019-02-21T00:31:46.874Z,32.80
2019-02-21T00:34:16.170Z,35.37
2019-02-21T00:36:45.615Z,37.83
2019-02-21T00:39:14.970Z,36.67
2019-02-21T00:41:44.277Z,34.47
2019-02-21T00:44:13.652Z,41.40
2019-02-21T00:46:42.906Z,35.37
2019-02-21T00:49:12.199Z,36.53
2019-02-21T00:51:41.722Z,40.57
2019-02-21T00:54:10.988Z,42.47
2019-02-21T00:56:40.278Z,40.63
2019-02-21T00:59:09.760Z,39.67
2019-02-21T01:01:39.065Z,46.43
2019-02-21T01:04:08.660Z,42.10
2019-02-21T01:06:37.954Z,41.53
2019-02-21T01:09:07.230Z,39.53
2019-02-21T01:11:36.579Z,41.03
2019-02-21T01:14:05.913Z,41.27
2019-02-21T01:16:35.213Z,39.83
2019-02-21T01:19:04.608Z,41.63
2019-02-21T01:21:33.941Z,41.27
2019-02-21T01:24:05.005Z,38.87
2019-02-21T01:26:34.173Z,45.87
2019-02-21T01:29:03.465Z,44.27
2019-02-21T01:31:32.776Z,44.17
2019-02-21T01:34:02.049Z,39.87
2019-02-21T01:36:31.439Z,45.83
2019-02-21T01:39:00.794Z,45.50
2019-02-21T01:41:30.090Z,46.70
2019-02-21T01:43:59.398Z,49.27
2019-02-21T01:46:28.694Z,45.53
2019-02-21T01:48:59.531Z,43.53
2019-02-21T01:51:28.941Z,44.10
2019-02-21T01:53:58.322Z,42.90
2019-02-21T01:56:27.607Z,44.93
2019-02-21T01:58:57.055Z,45.40
2019-02-21T02:01:26.374Z,44.87
2019-02-21T02:03:55.646Z,41.07
2019-02-21T02:06:24.987Z,45.20
2019-02-21T02:08:54.504Z,41.60
2019-02-21T02:11:23.819Z,45.50
2019-02-21T02:13:53.204Z,39.67
2019-02-21T02:16:22.545Z,45.90
2019-02-21T02:18:51.853Z,38.67
2019-02-21T02:21:21.192Z,38.97
2019-02-21T02:23:50.604Z,40.63
2019-02-21T02:26:20.299Z,39.07
2019-02-21T02:28:49.682Z,39.33
2019-02-21T02:31:23.311Z,40.40
2019-02-21T02:33:50.053Z,42.13
2019-02-21T02:36:22.248Z,39.63
2019-02-21T02:38:51.789Z,43.60
2019-02-21T02:41:21.220Z,42.13
2019-02-21T02:43:50.598Z,41.77
2019-02-21T02:46:19.990Z,41.33
2019-02-21T02:48:49.398Z,43.03
2019-02-21T02:51:18.670Z,36.47
2019-02-21T02:53:48.081Z,43.30
2019-02-21T02:56:17.326Z,47.07
2019-02-21T02:58:46.643Z,39.67
2019-02-21T03:01:15.918Z,38.00
2019-02-21T03:03:45.202Z,43.60
2019-02-21T03:06:14.572Z,39.57
2019-02-21T03:08:43.981Z,42.07
2019-02-21T03:11:13.371Z,42.37
2019-02-21T03:13:42.674Z,41.77
2019-02-21T03:16:12.074Z,43.63
2019-02-21T03:18:41.372Z,43.43
2019-02-21T03:21:10.696Z,39.63
2019-02-21T03:23:39.983Z,44.77
2019-02-21T03:26:09.278Z,39.97
2019-02-21T03:28:38.648Z,42.33
2019-02-21T03:31:07.971Z,38.37
2019-02-21T03:33:37.475Z,45.03
2019-02-21T03:36:06.810Z,44.17
2019-02-21T03:38:36.236Z,46.70
2019-02-21T03:41:05.568Z,45.27
2019-02-21T03:43:34.870Z,45.63
2019-02-21T03:46:04.268Z,42.13
2019-02-21T03:48:33.637Z,43.90
2019-02-21T03:51:02.959Z,44.57
2019-02-21T03:53:32.355Z,45.97
2019-02-21T03:56:01.759Z,46.57
2019-02-21T03:58:31.158Z,44.57
2019-02-21T04:01:00.482Z,43.93
2019-02-21T04:03:30.059Z,42.93
2019-02-21T04:05:59.302Z,45.50
2019-02-21T04:08:28.694Z,41.63
2019-02-21T04:10:58.038Z,46.47
2019-02-21T04:13:27.429Z,49.33
2019-02-21T04:15:56.847Z,43.90
2019-02-21T04:18:27.144Z,47.40
2019-02-21T04:20:56.443Z,46.90
2019-02-21T04:23:25.642Z,45.73
2019-02-21T04:25:55.021Z,43.40
2019-02-21T04:28:24.306Z,43.23
2019-02-21T04:30:53.643Z,45.80
2019-02-21T04:33:23.201Z,42.90
2019-02-21T04:35:52.412Z,48.80
2019-02-21T04:38:21.685Z,50.00
2019-02-21T04:40:51.002Z,49.83
2019-02-21T04:43:20.417Z,46.63
2019-02-21T04:45:49.743Z,46.80
2019-02-21T04:48:19.021Z,57.13
2019-02-21T04:50:48.298Z,49.17
2019-02-21T04:53:17.495Z,49.33
2019-02-21T04:55:46.791Z,48.67
2019-02-21T04:58:16.843Z,45.43
2019-02-21T05:00:46.248Z,47.23
2019-02-21T05:03:15.570Z,44.47
2019-02-21T05:05:44.944Z,48.20
2019-02-21T05:08:14.264Z,49.43
2019-02-21T05:10:43.567Z,45.90
2019-02-21T05:13:12.847Z,51.57
2019-02-21T05:15:42.143Z,48.77
2019-02-21T05:18:11.498Z,48.87
2019-02-21T05:20:40.782Z,47.97
2019-02-21T05:23:10.056Z,46.03
2019-02-21T05:25:39.362Z,46.43
2019-02-21T05:28:42.851Z,44.27
2019-02-21T05:31:24.103Z,45.97
2019-02-21T05:33:57.925Z,48.47
2019-02-21T05:36:51.492Z,51.47
2019-02-21T05:39:43.058Z,54.03
2019-02-21T05:42:23.312Z,52.63
2019-02-21T05:45:11.704Z,52.87
2019-02-21T05:47:54.672Z,52.13
2019-02-21T05:50:30.822Z,56.63
2019-02-21T05:53:18.133Z,49.87
2019-02-21T05:56:18.597Z,53.37
2019-02-21T05:59:12.968Z,51.07
2019-02-21T06:02:07.042Z,56.97
2019-02-21T06:04:55.435Z,54.00
2019-02-21T06:07:43.788Z,58.23
2019-02-21T06:10:37.865Z,56.37
2019-02-21T06:13:19.082Z,61.17
2019-02-21T06:16:00.006Z,56.50
2019-02-21T06:18:48.417Z,59.87
2019-02-21T06:21:35.216Z,56.30
2019-02-21T06:24:29.476Z,55.30
2019-02-21T06:27:38.061Z,50.57
2019-02-21T06:30:15.150Z,52.77
2019-02-21T06:32:44.438Z,55.07
2019-02-21T06:35:15.283Z,55.93
2019-02-21T06:37:44.567Z,51.93
2019-02-21T06:40:14.118Z,58.17
2019-02-21T06:42:43.399Z,58.00
2019-02-21T06:45:12.758Z,56.83
2019-02-21T06:47:42.217Z,59.83
2019-02-21T06:50:11.536Z,60.20
2019-02-21T06:52:40.900Z,59.83
2019-02-21T06:55:10.324Z,49.27
2019-02-21T06:57:39.687Z,55.50
2019-02-21T07:00:09.122Z,56.63
2019-02-21T07:02:39.875Z,59.73
2019-02-21T07:05:09.218Z,50.60
2019-02-21T07:07:38.604Z,49.50
2019-02-21T07:10:08.169Z,53.47
2019-02-21T07:12:37.431Z,52.17
2019-02-21T07:15:08.007Z,49.17
2019-02-21T07:17:37.374Z,54.23
2019-02-21T07:20:07.585Z,51.50
2019-02-21T07:22:36.906Z,52.63
2019-02-21T07:25:25.293Z,56.77
2019-02-21T07:27:54.715Z,43.67
2019-02-21T07:30:24.082Z,45.90
2019-02-21T07:32:53.398Z,46.37
2019-02-21T07:35:22.717Z,46.37
2019-02-21T07:37:52.121Z,45.97
2019-02-21T07:40:21.453Z,42.50
2019-02-21T07:42:50.863Z,56.17
2019-02-21T07:45:20.172Z,50.93
2019-02-21T07:47:49.509Z,42.53
2019-02-21T07:50:18.729Z,52.53
2019-02-21T07:52:48.056Z,42.27
2019-02-21T07:55:17.459Z,44.07
2019-02-21T07:57:46.832Z,42.07
2019-02-21T08:00:16.164Z,42.03
2019-02-21T08:02:45.501Z,45.67
2019-02-21T08:05:14.760Z,40.00
2019-02-21T08:07:44.053Z,39.27
2019-02-21T08:10:13.499Z,44.17
2019-02-21T08:12:42.825Z,38.10
2019-02-21T08:15:13.548Z,40.37
2019-02-21T08:17:42.926Z,40.30
2019-02-21T08:20:12.390Z,34.77
2019-02-21T08:22:41.699Z,44.67
2019-02-21T08:25:11.254Z,39.87
2019-02-21T08:27:42.488Z,42.07
2019-02-21T08:30:13.598Z,39.23
2019-02-21T08:33:00.335Z,36.50
2019-02-21T08:35:29.717Z,36.90
2019-02-21T08:37:59.015Z,38.60
2019-02-21T08:40:28.416Z,32.73
2019-02-21T08:42:57.761Z,35.80
2019-02-21T08:45:27.510Z,35.13
2019-02-21T08:47:56.889Z,31.43
2019-02-21T08:50:26.263Z,32.47
2019-02-21T08:52:55.640Z,33.83
2019-02-21T08:55:25.091Z,30.30
2019-02-21T08:57:54.486Z,35.07
2019-02-21T09:00:23.952Z,31.00
2019-02-21T09:02:53.310Z,32.07
2019-02-21T09:05:22.739Z,33.47
2019-02-21T09:07:52.188Z,27.33
2019-02-21T09:10:21.607Z,28.80
2019-02-21T09:12:51.064Z,31.63
2019-02-21T09:15:20.428Z,29.90
2019-02-21T09:17:49.844Z,27.80
2019-02-21T09:20:19.108Z,28.83
2019-02-21T09:22:48.418Z,27.90
2019-02-21T09:25:18.774Z,27.77
2019-02-21T09:27:48.147Z,27.33
2019-02-21T09:30:18.403Z,27.70
2019-02-21T09:32:47.707Z,31.20
2019-02-21T09:35:17.123Z,24.37
2019-02-21T09:37:46.492Z,26.00
2019-02-21T09:40:15.804Z,24.37
2019-02-21T09:42:45.222Z,24.97
2019-02-21T09:45:17.408Z,23.90
2019-02-21T09:47:46.896Z,22.73
2019-02-21T09:50:16.236Z,28.87
2019-02-21T09:52:45.522Z,24.97
2019-02-21T09:55:15.934Z,22.17
2019-02-21T09:57:45.358Z,21.77
2019-02-21T10:00:18.127Z,24.53
2019-02-21T10:02:47.455Z,21.67
2019-02-21T10:05:16.786Z,24.00
2019-02-21T10:07:46.214Z,24.33
2019-02-21T10:10:17.207Z,19.70
2019-02-21T10:12:46.513Z,22.63
2019-02-21T10:15:16.043Z,18.53
2019-02-21T10:17:45.504Z,21.20
2019-02-21T10:20:17.927Z,19.53
2019-02-21T10:22:47.237Z,23.40
2019-02-21T10:25:18.815Z,20.27
2019-02-21T10:27:48.118Z,21.00
2019-02-21T10:30:18.674Z,23.20
2019-02-21T10:32:47.995Z,17.90
2019-02-21T10:35:17.322Z,18.13
2019-02-21T10:37:46.785Z,19.70
2019-02-21T10:40:16.092Z,20.57
2019-02-21T10:42:45.478Z,17.23
2019-02-21T10:45:17.620Z,20.63
2019-02-21T10:47:46.948Z,21.10
2019-02-21T10:50:17.781Z,18.67
2019-02-21T10:52:47.209Z,19.93
2019-02-21T10:55:18.292Z,17.33
2019-02-21T10:57:47.594Z,17.07
2019-02-21T11:00:22.798Z,14.33
2019-02-21T11:02:52.212Z,17.03
2019-02-21T11:05:21.584Z,13.67
2019-02-21T11:07:50.875Z,15.87
2019-02-21T11:10:22.660Z,14.10
2019-02-21T11:12:52.048Z,14.23
2019-02-21T11:15:22.198Z,14.13
2019-02-21T11:17:51.530Z,16.27
2019-02-21T11:20:20.849Z,16.40
2019-02-21T11:22:50.201Z,14.87
2019-02-21T11:25:19.590Z,15.00
2019-02-21T11:27:48.996Z,13.43
2019-02-21T11:30:19.574Z,14.03
2019-02-21T11:32:48.904Z,16.47
2019-02-21T11:35:18.450Z,15.20
2019-02-21T11:37:47.867Z,16.93
2019-02-21T11:40:17.776Z,15.80
2019-02-21T11:42:47.356Z,17.27
2019-02-21T11:45:16.968Z,14.73
2019-02-21T11:47:47.401Z,13.97
2019-02-21T11:50:35.804Z,15.40
2019-02-21T11:53:24.287Z,12.30
2019-02-21T11:55:53.588Z,14.83
2019-02-21T11:58:22.955Z,15.80
2019-02-21T12:00:52.274Z,15.20
2019-02-21T12:03:21.618Z,17.73
2019-02-21T12:05:50.998Z,14.83
2019-02-21T12:08:20.285Z,13.37
2019-02-21T12:10:51.007Z,16.73
2019-02-21T12:13:20.508Z,16.97
2019-02-21T12:15:49.827Z,14.60
2019-02-21T12:18:19.117Z,15.37
2019-02-21T12:20:48.426Z,14.53
2019-02-21T12:23:18.155Z,10.17
2019-02-21T12:25:47.508Z,11.73
2019-02-21T12:28:16.772Z,10.37
2019-02-21T12:30:46.103Z,11.97
2019-02-21T12:33:15.476Z,14.47
2019-02-21T12:35:44.767Z,13.73
2019-02-21T12:38:14.113Z,12.07
2019-02-21T12:40:43.377Z,11.93
2019-02-21T12:43:12.784Z,11.70
2019-02-21T12:45:42.128Z,13.53
2019-02-21T12:48:11.559Z,13.00
2019-02-21T12:50:44.301Z,14.00
2019-02-21T12:53:11.943Z,14.83
2019-02-21T12:55:41.314Z,12.83
2019-02-21T12:58:10.673Z,14.63
2019-02-21T13:00:40.129Z,14.07
2019-02-21T13:03:09.495Z,15.30
2019-02-21T13:05:41.328Z,10.67
2019-02-21T13:08:09.968Z,12.73
2019-02-21T13:10:39.403Z,13.20
2019-02-21T13:13:09.894Z,11.93
2019-02-21T13:15:39.362Z,13.73
2019-02-21T13:18:15.800Z,13.37
2019-02-21T13:20:40.127Z,13.97
2019-02-21T13:23:09.546Z,13.07
2019-02-21T13:25:39.014Z,14.90
2019-02-21T13:28:08.510Z,14.47
2019-02-21T13:30:37.978Z,15.53
2019-02-21T13:33:07.373Z,14.07
2019-02-21T13:35:38.626Z,15.63
2019-02-21T13:38:08.001Z,14.87
2019-02-21T13:40:37.324Z,13.30
2019-02-21T13:43:06.670Z,13.40
2019-02-21T13:45:35.970Z,13.90
2019-02-21T13:48:05.365Z,12.20
2019-02-21T13:50:34.831Z,11.23
2019-02-21T13:53:04.232Z,12.67
2019-02-21T13:55:33.623Z,12.57
2019-02-21T13:58:02.915Z,12.53
2019-02-21T14:00:32.315Z,14.63
2019-02-21T14:03:01.695Z,13.63
2019-02-21T14:05:31.137Z,14.57
2019-02-21T14:08:00.526Z,14.87
2019-02-21T14:10:29.897Z,14.10
2019-02-21T14:12:59.515Z,15.93
2019-02-21T14:15:29.270Z,13.03
2019-02-21T14:17:59.015Z,17.37
2019-02-21T14:20:31.236Z,15.10
2019-02-21T14:23:01.586Z,15.33
2019-02-21T14:25:40.281Z,16.97
2019-02-21T14:28:03.684Z,14.53
2019-02-21T14:30:33.146Z,15.50
2019-02-21T14:33:03.646Z,18.53
2019-02-21T14:35:33.059Z,17.57
2019-02-21T14:38:02.753Z,17.57
2019-02-21T14:40:32.377Z,15.43
2019-02-21T14:43:02.716Z,18.23
2019-02-21T14:45:32.138Z,16.60
2019-02-21T14:48:02.163Z,17.40
2019-02-21T14:50:31.568Z,18.73
2019-02-21T14:53:01.117Z,16.63
2019-02-21T14:55:31.741Z,17.47
2019-02-21T14:58:01.391Z,21.17
2019-02-21T15:00:30.854Z,19.53
2019-02-21T15:03:00.297Z,19.10
2019-02-21T15:05:30.379Z,19.43
2019-02-21T15:08:00.400Z,16.30
2019-02-21T15:10:29.760Z,17.17
2019-02-21T15:12:59.144Z,18.40
2019-02-21T15:15:28.520Z,19.27
2019-02-21T15:18:07.057Z,18.10
2019-02-21T15:20:36.944Z,17.77
2019-02-21T15:23:00.103Z,21.20
2019-02-21T15:25:29.396Z,21.10
2019-02-21T15:27:58.954Z,18.90
2019-02-21T15:30:28.353Z,19.37
2019-02-21T15:32:57.713Z,19.90
2019-02-21T15:35:27.028Z,18.90
2019-02-21T15:37:56.432Z,20.63
2019-02-21T15:40:25.899Z,20.40
2019-02-21T15:42:55.213Z,21.40
2019-02-21T15:45:26.120Z,19.77
2019-02-21T15:47:55.430Z,21.47
2019-02-21T15:50:24.843Z,21.67
2019-02-21T15:52:54.258Z,21.60
2019-02-21T15:55:23.575Z,22.03
2019-02-21T15:58:03.371Z,21.77
2019-02-21T16:00:29.538Z,21.60
2019-02-21T16:03:01.683Z,24.23
2019-02-21T16:05:31.224Z,21.57
2019-02-21T16:08:00.661Z,22.47
2019-02-21T16:10:31.136Z,21.83
2019-02-21T16:13:04.214Z,21.97
2019-02-21T16:15:31.484Z,22.73
2019-02-21T16:18:00.961Z,24.63
2019-02-21T16:20:30.402Z,25.00
2019-02-21T16:23:01.363Z,25.97
2019-02-21T16:25:30.842Z,27.77
2019-02-21T16:28:00.256Z,24.07
2019-02-21T16:30:29.659Z,24.60
2019-02-21T16:32:59.020Z,27.07
2019-02-21T16:35:28.721Z,27.33
2019-02-21T16:37:58.130Z,29.13
2019-02-21T16:40:29.173Z,29.27
2019-02-21T16:42:58.435Z,28.27
2019-02-21T16:45:39.803Z,27.50
2019-02-21T16:47:59.088Z,27.73
2019-02-21T16:50:30.120Z,31.10
2019-02-21T16:52:59.536Z,30.20
2019-02-21T16:55:28.877Z,31.27
2019-02-21T16:57:58.298Z,35.67
2019-02-21T17:00:42.181Z,31.00
2019-02-21T17:02:58.826Z,29.63
2019-02-21T17:05:28.222Z,30.93
2019-02-21T17:07:57.594Z,34.27
2019-02-21T17:10:26.902Z,31.47
2019-02-21T17:12:56.378Z,33.50
2019-02-21T17:15:25.672Z,32.47
2019-02-21T17:17:55.334Z,33.67
2019-02-21T17:20:24.603Z,35.43
2019-02-21T17:22:54.021Z,33.43
2019-02-21T17:25:23.415Z,35.13
2019-02-21T17:27:52.685Z,33.93
2019-02-21T17:30:22.026Z,33.70
2019-02-21T17:32:51.310Z,38.20
2019-02-21T17:35:20.690Z,34.97
2019-02-21T17:37:49.910Z,36.87
2019-02-21T17:40:20.300Z,38.40
2019-02-21T17:42:49.585Z,35.93
2019-02-21T17:45:18.939Z,38.40
2019-02-21T17:47:48.263Z,38.27
2019-02-21T17:50:17.578Z,42.20
2019-02-21T17:52:48.524Z,43.10
2019-02-21T17:55:17.938Z,46.50
2019-02-21T17:57:47.321Z,45.60
2019-02-21T18:00:21.157Z,43.17
2019-02-21T18:02:50.449Z,52.67
2019-02-21T18:05:19.793Z,48.63
2019-02-21T18:07:49.162Z,43.93
2019-02-21T18:10:18.486Z,48.67
2019-02-21T18:12:47.816Z,45.30
2019-02-21T18:15:17.773Z,49.37
2019-02-21T18:17:47.029Z,45.83
2019-02-21T18:20:16.506Z,51.47
2019-02-21T18:22:45.799Z,46.23
2019-02-21T18:25:21.974Z,53.57
2019-02-21T18:27:51.313Z,45.13
2019-02-21T18:30:20.694Z,46.17
2019-02-21T18:32:50.063Z,49.53
2019-02-21T18:35:19.364Z,47.40
2019-02-21T18:37:48.684Z,43.67
2019-02-21T18:40:20.861Z,43.93
2019-02-21T18:42:50.433Z,44.60
2019-02-21T18:45:19.869Z,43.40
2019-02-21T18:47:49.142Z,43.50
2019-02-21T18:50:18.513Z,42.23
2019-02-21T18:52:47.769Z,38.50
2019-02-21T18:55:17.104Z,42.27
2019-02-21T18:57:46.426Z,40.10
2019-02-21T19:00:18.311Z,42.00
2019-02-21T19:02:47.616Z,39.10
2019-02-21T19:05:16.962Z,38.60
2019-02-21T19:07:46.338Z,37.37
2019-02-21T19:10:16.599Z,39.23
2019-02-21T19:12:45.959Z,38.73
2019-02-21T19:15:17.171Z,37.43
2019-02-21T19:17:46.471Z,38.30
2019-02-21T19:20:15.896Z,38.60
2019-02-21T19:22:45.313Z,37.30
2019-02-21T19:25:15.699Z,36.40
2019-02-21T19:27:45.005Z,36.33
2019-02-21T19:30:18.015Z,35.47
2019-02-21T19:32:47.398Z,35.37
2019-02-21T19:35:17.184Z,35.33
2019-02-21T19:37:46.612Z,36.77
2019-02-21T19:40:16.079Z,35.10
2019-02-21T19:42:45.479Z,36.10
2019-02-21T19:45:14.908Z,34.13
2019-02-21T19:47:44.241Z,36.03
2019-02-21T19:50:15.618Z,34.80
2019-02-21T19:52:45.049Z,37.10
2019-02-21T19:55:14.806Z,36.03
2019-02-21T19:57:44.097Z,36.47
2019-02-21T20:00:15.498Z,33.93
2019-02-21T20:02:44.786Z,36.17
2019-02-21T20:05:14.949Z,36.63
2019-02-21T20:07:44.245Z,34.93
2019-02-21T20:10:13.585Z,35.30
2019-02-21T20:12:42.867Z,35.30
2019-02-21T20:15:12.453Z,36.27
2019-02-21T20:17:41.797Z,36.63
2019-02-21T20:20:12.326Z,36.63
2019-02-21T20:22:41.659Z,39.17
2019-02-21T20:25:10.984Z,43.33
2019-02-21T20:27:40.262Z,39.43
2019-02-21T20:30:11.776Z,42.97
2019-02-21T20:32:41.098Z,40.63
2019-02-21T20:35:10.384Z,41.77
2019-02-21T20:37:39.999Z,42.20
2019-02-21T20:40:09.586Z,39.40
2019-02-21T20:42:39.065Z,35.37
2019-02-21T20:45:08.966Z,40.80
2019-02-21T20:47:38.298Z,39.87
2019-02-21T20:50:08.073Z,37.03
2019-02-21T20:52:37.472Z,39.37
2019-02-21T20:55:08.157Z,37.50
2019-02-21T20:57:37.598Z,35.70
2019-02-21T21:00:08.435Z,37.47
2019-02-21T21:02:37.947Z,40.47
2019-02-21T21:05:07.483Z,38.23
2019-02-21T21:07:36.864Z,36.73
2019-02-21T21:10:09.201Z,35.47
2019-02-21T21:12:38.489Z,39.40
2019-02-21T21:15:09.534Z,34.97
2019-02-21T21:17:39.120Z,36.77
2019-02-21T21:20:16.666Z,34.77
2019-02-21T21:22:40.744Z,35.43
2019-02-21T21:25:11.790Z,36.00
2019-02-21T21:27:41.074Z,31.87
2019-02-21T21:30:12.052Z,36.27
2019-02-21T21:32:41.362Z,30.90
2019-02-21T21:35:10.713Z,29.90
2019-02-21T21:37:40.009Z,30.13
2019-02-21T21:40:11.095Z,29.50
2019-02-21T21:42:40.423Z,27.60
2019-02-21T21:45:12.457Z,28.23
2019-02-21T21:47:42.091Z,27.30
2019-02-21T21:50:13.898Z,29.03
2019-02-21T21:52:43.348Z,24.60
2019-02-21T21:55:12.801Z,25.63
2019-02-21T21:57:42.167Z,25.33
2019-02-21T22:00:14.182Z,26.47
2019-02-21T22:02:43.509Z,26.60
2019-02-21T22:05:12.881Z,24.03
2019-02-21T22:07:42.239Z,23.40
2019-02-21T22:10:13.728Z,24.13
2019-02-21T22:12:43.055Z,22.97
2019-02-21T22:15:12.669Z,21.90
2019-02-21T22:17:42.316Z,22.23
2019-02-21T22:20:11.975Z,22.00
2019-02-21T22:22:41.424Z,20.40
2019-02-21T22:25:11.443Z,19.40
2019-02-21T22:27:40.747Z,19.10
2019-02-21T22:30:11.980Z,17.10
2019-02-21T22:32:41.290Z,16.50
2019-02-21T22:35:10.650Z,17.47
2019-02-21T22:37:39.961Z,15.90
2019-02-21T22:40:10.572Z,16.63
2019-02-21T22:42:39.901Z,14.97
2019-02-21T22:45:09.728Z,15.43
2019-02-21T22:47:39.010Z,15.37
2019-02-21T22:50:10.543Z,15.03
2019-02-21T22:52:39.934Z,14.37
2019-02-21T22:55:10.417Z,14.97
2019-02-21T22:57:39.985Z,15.07
2019-02-21T23:01:03.975Z,14.23
2019-02-21T23:03:48.750Z,12.90
2019-02-21T23:06:46.821Z,14.57
2019-02-21T23:09:27.127Z,14.67
2019-02-21T23:11:50.646Z,14.37
2019-02-21T23:14:20.106Z,15.27
2019-02-21T23:16:52.791Z,14.27
2019-02-21T23:19:24.125Z,14.77
2019-02-21T23:21:53.255Z,15.33
2019-02-21T23:24:22.541Z,15.60
2019-02-21T23:26:51.814Z,17.97
2019-02-21T23:29:21.190Z,16.53
2019-02-21T23:31:50.552Z,16.90
2019-02-21T23:34:37.623Z,16.07
2019-02-21T23:37:07.019Z,16.33
2019-02-21T23:39:38.599Z,18.00
2019-02-21T23:42:07.450Z,19.80
2019-02-21T23:44:36.747Z,18.63
2019-02-21T23:47:06.125Z,19.20
2019-02-21T23:49:35.418Z,22.20
2019-02-21T23:52:04.841Z,23.70
2019-02-21T23:54:34.199Z,24.20
2019-02-21T23:57:03.489Z,23.73
2019-02-21T23:59:32.715Z,24.67
